Time;durP1;ratioP1;P1;durP2;ratioP2;P2;SDS_P1;SDS_P2;PMS_P1;PMS_P2;Temp;Humidity;BMP_temperature;BMP_pressure;BME280_temperature;BME280_humidity;BME280_pressure;Samples;Min_cycle;Max_cycle;Signal;HPM_P1;HPM_P2
2022/06/30 00:01:35;;;;;;;4.28;3.97;;;16.00;99.90;;;;;;5075558;28;20285;-79
2022/06/30 00:04:02;;;;;;;4.40;4.00;;;16.10;99.90;;;;;;5073398;28;20202;-79
2022/06/30 00:06:29;;;;;;;5.35;3.83;;;16.10;99.90;;;;;;5075088;28;20206;-79
2022/06/30 00:08:56;;;;;;;4.50;4.10;;;16.00;99.90;;;;;;5074936;28;20667;-79
2022/06/30 00:11:23;;;;;;;4.28;3.72;;;16.00;99.90;;;;;;5075205;28;20264;-79
2022/06/30 00:13:51;;;;;;;4.40;3.47;;;15.90;99.90;;;;;;5075201;28;20202;-79
2022/06/30 00:16:18;;;;;;;4.93;3.70;;;16.00;99.90;;;;;;5053954;28;20223;-79
2022/06/30 00:18:47;;;;;;;7.67;3.87;;;15.70;99.90;;;;;;5054212;28;20665;-79
2022/06/30 00:21:13;;;;;;;4.10;3.70;;;15.60;99.90;;;;;;5054768;28;20687;-79
2022/06/30 00:23:40;;;;;;;4.27;3.87;;;15.60;99.90;;;;;;5054591;28;20207;-79
2022/06/30 00:26:07;;;;;;;4.45;3.70;;;15.70;99.90;;;;;;5052388;28;20206;-78
2022/06/30 00:28:34;;;;;;;5.28;4.10;;;15.70;99.90;;;;;;5052271;28;20203;-79
2022/06/30 00:31:02;;;;;;;5.93;3.70;;;15.80;99.90;;;;;;5052708;28;20736;-79
2022/06/30 00:33:29;;;;;;;8.00;4.20;;;15.80;99.90;;;;;;5051980;28;20217;-79
2022/06/30 00:35:56;;;;;;;5.13;4.10;;;15.70;99.90;;;;;;5052215;28;20221;-79
2022/06/30 00:38:23;;;;;;;6.03;4.47;;;15.70;99.90;;;;;;5052495;28;20214;-79
2022/06/30 00:40:49;;;;;;;4.75;4.35;;;15.70;99.90;;;;;;5051623;28;20578;-79
2022/06/30 00:43:16;;;;;;;6.60;4.50;;;15.80;99.90;;;;;;5050113;28;20229;-79
2022/06/30 00:45:44;;;;;;;4.38;3.97;;;16.00;99.90;;;;;;5050488;28;20203;-79
2022/06/30 00:48:13;;;;;;;5.78;4.22;;;16.10;99.90;;;;;;5051771;28;20566;-79
2022/06/30 00:50:41;;;;;;;5.33;4.60;;;15.90;99.90;;;;;;5049871;28;20219;-79
2022/06/30 00:53:09;;;;;;;4.88;4.45;;;15.80;99.90;;;;;;5054948;28;20222;-79
2022/06/30 00:55:37;;;;;;;5.30;4.50;;;15.80;99.90;;;;;;5054184;28;20522;-79
2022/06/30 00:58:05;;;;;;;5.93;5.32;;;15.80;99.90;;;;;;5055220;28;20636;-79
2022/06/30 01:00:35;;;;;;;5.05;4.45;;;15.90;99.90;;;;;;5054396;28;20210;-79
2022/06/30 01:03:02;;;;;;;6.40;4.53;;;15.80;99.90;;;;;;5055794;28;20223;-79
2022/06/30 01:05:31;;;;;;;6.45;4.60;;;15.80;99.90;;;;;;5056371;28;20202;-79
2022/06/30 01:07:58;;;;;;;4.90;4.35;;;15.80;99.90;;;;;;5056541;28;20294;-79
2022/06/30 01:13:15;;;;;;;6.30;4.40;;;15.80;99.90;;;;;;5000694;28;20272;-79
2022/06/30 01:15:42;;;;;;;4.90;4.30;;;15.70;99.90;;;;;;5055253;28;20298;-79
2022/06/30 01:18:09;;;;;;;4.57;4.13;;;15.80;99.90;;;;;;5055961;28;20218;-79
2022/06/30 01:20:37;;;;;;;5.80;4.63;;;15.90;99.90;;;;;;5054889;28;20199;-79
2022/06/30 01:23:06;;;;;;;4.95;3.95;;;16.00;99.90;;;;;;5057653;28;20230;-79
2022/06/30 01:25:34;;;;;;;5.50;4.23;;;15.90;99.90;;;;;;5055740;28;20712;-79
2022/06/30 01:28:01;;;;;;;5.03;4.20;;;15.80;99.90;;;;;;5057205;28;20656;-79
2022/06/30 01:30:28;;;;;;;4.25;3.85;;;15.80;99.90;;;;;;5055064;28;20205;-79
2022/06/30 01:32:55;;;;;;;6.33;4.33;;;15.80;99.90;;;;;;5054752;28;20700;-79
2022/06/30 01:35:22;;;;;;;6.25;4.90;;;15.80;99.90;;;;;;5056318;28;20221;-79
2022/06/30 01:37:50;;;;;;;6.78;4.97;;;15.80;99.90;;;;;;5056001;28;20217;-79
2022/06/30 01:40:20;;;;;;;5.10;4.57;;;15.80;99.90;;;;;;5055095;28;20199;-79
2022/06/30 01:42:46;;;;;;;4.57;4.17;;;15.50;99.90;;;;;;5056135;28;20305;-79
2022/06/30 01:45:13;;;;;;;4.70;4.30;;;15.30;99.90;;;;;;5055242;28;20199;-79
2022/06/30 01:47:40;;;;;;;7.10;4.65;;;15.20;99.90;;;;;;5055212;28;20205;-79
2022/06/30 01:50:10;;;;;;;5.50;4.53;;;15.10;99.90;;;;;;5054972;28;20203;-79
2022/06/30 01:52:37;;;;;;;4.87;4.37;;;15.20;99.90;;;;;;5056489;28;20286;-79
2022/06/30 01:55:05;;;;;;;5.78;4.30;;;15.40;99.90;;;;;;5053967;28;20229;-79
2022/06/30 01:57:33;;;;;;;6.77;4.57;;;15.40;99.90;;;;;;5055933;28;20625;-79
2022/06/30 02:00:00;;;;;;;6.90;4.23;;;15.20;99.90;;;;;;5055252;28;20547;-79
2022/06/30 02:02:27;;;;;;;4.40;3.97;;;15.10;99.90;;;;;;5058894;28;20233;-79
2022/06/30 02:04:54;;;;;;;6.97;4.67;;;15.10;99.90;;;;;;5059412;28;20213;-79
2022/06/30 02:07:23;;;;;;;4.37;3.97;;;14.90;99.90;;;;;;5087762;28;20202;-79
2022/06/30 02:09:50;;;;;;;5.47;4.33;;;15.10;99.90;;;;;;5099331;28;20211;-79
2022/06/30 02:15:04;;;;;;;7.45;5.03;;;15.40;99.90;;;;;;5098705;28;20697;-79
2022/06/30 02:17:31;;;;;;;6.93;4.20;;;15.10;99.90;;;;;;5100185;28;20638;-79
2022/06/30 02:19:58;;;;;;;5.40;4.17;;;15.00;99.90;;;;;;5099520;28;20207;-79
2022/06/30 02:22:25;;;;;;;6.43;4.43;;;15.00;99.90;;;;;;5080831;28;20309;-79
2022/06/30 02:24:52;;;;;;;5.43;4.30;;;15.10;99.90;;;;;;5077029;28;20224;-79
2022/06/30 02:27:20;;;;;;;4.63;4.10;;;15.00;99.90;;;;;;5059718;28;20207;-79
2022/06/30 02:29:47;;;;;;;7.00;4.53;;;15.00;99.90;;;;;;5059779;28;20208;-79
2022/06/30 02:32:15;;;;;;;5.00;4.50;;;14.90;99.90;;;;;;5058595;28;20249;-79
2022/06/30 02:34:43;;;;;;;6.90;4.37;;;15.00;99.90;;;;;;5057456;28;20213;-79
2022/06/30 02:37:09;;;;;;;6.03;4.57;;;15.00;99.90;;;;;;5058229;28;20294;-79
2022/06/30 02:39:36;;;;;;;4.67;3.90;;;15.10;99.90;;;;;;5058251;28;20215;-79
2022/06/30 02:42:03;;;;;;;4.63;3.90;;;15.10;99.90;;;;;;5056203;28;20309;-79
2022/06/30 02:44:30;;;;;;;4.90;4.40;;;15.10;99.90;;;;;;5133823;23;20235;-73
2022/06/30 02:46:57;;;;;;;6.50;4.23;;;15.00;99.90;;;;;;5022592;28;20208;-73
2022/06/30 02:49:25;;;;;;;7.80;4.53;;;15.00;99.90;;;;;;5014049;28;20207;-73
2022/06/30 02:51:52;;;;;;;6.17;4.10;;;15.00;99.90;;;;;;5026172;28;20641;-73
2022/06/30 02:54:19;;;;;;;7.40;4.80;;;15.00;99.90;;;;;;5029739;28;20204;-73
2022/06/30 02:56:47;;;;;;;6.77;4.73;;;15.00;99.90;;;;;;5014054;28;20231;-73
2022/06/30 02:59:14;;;;;;;5.47;4.13;;;15.00;99.90;;;;;;5013889;28;20254;-73
2022/06/30 03:01:41;;;;;;;4.40;4.00;;;14.90;99.90;;;;;;5012500;28;20255;-73
2022/06/30 03:04:08;;;;;;;5.27;4.77;;;14.60;99.90;;;;;;5014804;28;20291;-73
2022/06/30 03:06:37;;;;;;;5.73;5.10;;;14.40;99.90;;;;;;5020733;28;20208;-73
2022/06/30 03:09:04;;;;;;;5.30;4.60;;;14.40;99.90;;;;;;5020459;28;20207;-73
2022/06/30 03:11:31;;;;;;;5.13;4.20;;;14.50;99.90;;;;;;5021282;28;20240;-73
2022/06/30 03:13:58;;;;;;;6.10;4.87;;;14.10;99.90;;;;;;5020414;28;20307;-73
2022/06/30 03:16:25;;;;;;;9.80;5.30;;;14.20;99.90;;;;;;5024608;28;20746;-73
2022/06/30 03:18:53;;;;;;;6.17;5.50;;;14.40;99.90;;;;;;5012087;28;20647;-73
2022/06/30 03:21:20;;;;;;;6.73;5.63;;;14.40;99.90;;;;;;5028111;28;20525;-73
2022/06/30 03:23:49;;;;;;;8.43;5.07;;;14.50;99.90;;;;;;5013474;28;20200;-73
2022/06/30 03:26:16;;;;;;;6.33;5.33;;;14.60;99.90;;;;;;5013182;28;20551;-73
2022/06/30 03:28:44;;;;;;;5.87;5.27;;;14.70;99.90;;;;;;5017422;28;20733;-75
2022/06/30 03:31:11;;;;;;;6.63;5.53;;;14.50;99.90;;;;;;5015158;28;20227;-75
2022/06/30 03:33:38;;;;;;;7.43;5.67;;;14.40;99.90;;;;;;5011631;28;20230;-75
2022/06/30 03:36:06;;;;;;;8.27;5.97;;;14.50;99.90;;;;;;5012654;28;20332;-75
2022/06/30 03:38:33;;;;;;;8.20;5.97;;;14.60;99.90;;;;;;5014700;28;20287;-75
2022/06/30 03:41:01;;;;;;;7.10;5.57;;;14.60;99.90;;;;;;5030872;28;20199;-76
2022/06/30 03:43:28;;;;;;;6.40;4.60;;;14.90;99.90;;;;;;5019203;28;20232;-76
2022/06/30 03:45:55;;;;;;;6.23;5.10;;;15.10;99.90;;;;;;5012826;28;20733;-76
2022/06/30 03:48:22;;;;;;;7.33;4.97;;;15.20;99.90;;;;;;5019825;28;20218;-76
2022/06/30 03:50:49;;;;;;;7.73;5.20;;;15.20;99.90;;;;;;5017408;28;20280;-76
2022/06/30 03:53:15;;;;;;;30.63;7.33;;;15.20;99.90;;;;;;5010961;28;20304;-76
2022/06/30 03:55:42;;;;;;;8.47;4.83;;;15.10;99.90;;;;;;5013707;28;20303;-76
2022/06/30 03:58:11;;;;;;;4.97;4.47;;;15.10;99.90;;;;;;5013937;28;20279;-76
2022/06/30 04:00:38;;;;;;;6.67;4.57;;;14.90;99.90;;;;;;4998984;28;20201;-76
2022/06/30 04:03:05;;;;;;;7.97;5.37;;;15.00;99.90;;;;;;5016733;28;20569;-76
2022/06/30 04:05:32;;;;;;;9.97;6.10;;;15.10;99.90;;;;;;5029026;28;20207;-76
2022/06/30 04:07:59;;;;;;;5.30;4.80;;;15.30;99.90;;;;;;5011972;28;20613;-76
2022/06/30 04:10:26;;;;;;;7.03;5.07;;;15.30;99.90;;;;;;5011808;28;20674;-75
2022/06/30 04:12:53;;;;;;;9.93;5.03;;;15.20;99.90;;;;;;5013714;28;20192;-75
2022/06/30 04:15:22;;;;;;;5.20;4.70;;;15.60;99.90;;;;;;5028614;28;20297;-75
2022/06/30 04:17:49;;;;;;;5.90;5.13;;;15.80;99.90;;;;;;5028637;28;20646;-75
2022/06/30 04:20:18;;;;;;;6.45;4.80;;;16.50;99.90;;;;;;5027374;28;20302;-75
2022/06/30 04:22:47;;;;;;;5.18;4.68;;;17.30;99.90;;;;;;5030781;28;20199;-75
2022/06/30 04:25:14;;;;;;;5.38;4.15;;;17.60;99.90;;;;;;5004369;28;20242;-75
2022/06/30 04:27:43;;;;;;;5.47;4.93;;;18.00;99.90;;;;;;4994242;28;20687;-75
2022/06/30 04:30:11;;;;;;;5.32;4.82;;;18.10;99.90;;;;;;5010197;28;20537;-75
2022/06/30 04:32:39;;;;;;;7.57;4.38;;;17.90;99.90;;;;;;5011178;28;20208;-75
2022/06/30 04:35:08;;;;;;;5.38;4.50;;;17.70;99.90;;;;;;5002325;28;20196;-75
2022/06/30 04:37:35;;;;;;;5.70;4.95;;;17.50;99.90;;;;;;5008013;28;20534;-72
2022/06/30 04:42:46;;;;;;;6.07;4.78;;;17.10;99.90;;;;;;5009246;28;20310;-70
2022/06/30 04:45:13;;;;;;;8.70;5.25;;;16.60;99.90;;;;;;5010149;28;20208;-69
2022/06/30 04:47:42;;;;;;;8.30;5.22;;;16.20;99.90;;;;;;5010426;28;20244;-69
2022/06/30 04:50:10;;;;;;;8.35;5.47;;;16.10;99.90;;;;;;5010244;28;20206;-69
2022/06/30 04:52:36;;;;;;;10.55;5.45;;;16.10;99.90;;;;;;5011309;28;20412;-69
2022/06/30 04:55:04;;;;;;;8.77;5.47;;;16.10;99.90;;;;;;5010429;28;20202;-69
2022/06/30 04:57:31;;;;;;;8.25;5.43;;;16.30;99.90;;;;;;5009663;28;20282;-69
2022/06/30 04:59:58;;;;;;;8.50;5.55;;;16.40;99.90;;;;;;5010016;28;20212;-69
2022/06/30 05:02:24;;;;;;;8.30;5.90;;;16.40;99.90;;;;;;5014275;28;20304;-69
2022/06/30 05:04:53;;;;;;;7.95;5.40;;;16.40;99.90;;;;;;5010815;28;20621;-69
2022/06/30 05:07:21;;;;;;;6.28;5.22;;;16.30;99.90;;;;;;5010841;28;20622;-69
2022/06/30 05:09:48;;;;;;;8.27;5.73;;;16.30;99.90;;;;;;5010366;28;20274;-70
2022/06/30 05:12:15;;;;;;;7.25;5.72;;;16.40;99.90;;;;;;5010565;28;20643;-70
2022/06/30 05:14:42;;;;;;;8.77;5.28;;;16.60;99.90;;;;;;5010511;28;20234;-69
2022/06/30 05:17:09;;;;;;;6.20;5.40;;;17.20;99.90;;;;;;5012203;28;20651;-70
2022/06/30 05:19:36;;;;;;;6.40;5.75;;;18.10;99.90;;;;;;5021896;28;20284;-70
2022/06/30 05:22:05;;;;;;;7.20;5.82;;;17.90;99.90;;;;;;5011149;28;20208;-70
2022/06/30 05:27:16;;;;;;;6.63;5.22;;;17.70;99.90;;;;;;5011336;28;20559;-72
2022/06/30 05:29:43;;;;;;;10.75;5.90;;;17.60;99.90;;;;;;5011449;28;20266;-72
2022/06/30 05:32:10;;;;;;;20.48;7.13;;;18.20;99.90;;;;;;5006082;28;20295;-69
2022/06/30 05:34:38;;;;;;;16.35;6.10;;;18.10;99.90;;;;;;5010042;28;20208;-69
2022/06/30 05:37:07;;;;;;;11.95;5.78;;;18.20;99.90;;;;;;5020624;28;20680;-69
2022/06/30 05:39:34;;;;;;;11.02;5.88;;;18.40;99.90;;;;;;5025837;28;20257;-71
2022/06/30 05:42:01;;;;;;;6.43;5.07;;;18.50;99.90;;;;;;5012471;28;20302;-72
2022/06/30 05:44:29;;;;;;;5.95;5.10;;;18.60;99.90;;;;;;5004066;28;20305;-71
2022/06/30 05:46:56;;;;;;;5.40;4.80;;;19.00;99.90;;;;;;5012868;28;20250;-72
2022/06/30 05:49:23;;;;;;;5.10;4.50;;;19.70;99.90;;;;;;5028285;28;20286;-72
2022/06/30 05:51:50;;;;;;;6.72;5.00;;;19.40;99.90;;;;;;5013838;28;20255;-70
2022/06/30 05:54:19;;;;;;;7.97;5.25;;;19.50;99.90;;;;;;5008724;28;20208;-70
2022/06/30 05:56:46;;;;;;;6.82;5.25;;;19.90;99.90;;;;;;5009778;28;20232;-69
2022/06/30 05:59:13;;;;;;;7.55;5.35;;;20.10;99.90;;;;;;5027853;28;20592;-70
2022/06/30 06:01:43;;;;;;;5.22;4.65;;;20.10;99.90;;;;;;5017979;28;20506;-69
2022/06/30 06:04:10;;;;;;;7.75;5.53;;;20.00;99.90;;;;;;5008361;28;20287;-69
2022/06/30 06:06:37;;;;;;;11.15;5.30;;;19.80;99.90;;;;;;5019573;28;20257;-69
2022/06/30 06:09:04;;;;;;;6.78;5.05;;;19.80;99.90;;;;;;5021123;28;20254;-69
2022/06/30 06:11:33;;;;;;;7.00;5.30;;;19.80;99.90;;;;;;5020724;28;20541;-69
2022/06/30 06:14:00;;;;;;;9.00;5.25;;;20.00;99.90;;;;;;5020520;28;20366;-64
2022/06/30 06:16:27;;;;;;;8.82;5.57;;;20.20;99.90;;;;;;5007779;28;20232;-64
2022/06/30 06:18:54;;;;;;;7.35;4.88;;;20.30;99.90;;;;;;5006515;28;20200;-64
2022/06/30 06:21:21;;;;;;;11.73;5.75;;;20.60;99.90;;;;;;5017507;28;20272;-64
2022/06/30 06:23:48;;;;;;;7.65;5.22;;;20.60;99.90;;;;;;5019430;28;20295;-64
2022/06/30 06:26:15;;;;;;;7.30;4.90;;;20.70;99.90;;;;;;5009714;28;20232;-64
2022/06/30 06:31:28;;;;;;;6.65;5.28;;;20.90;99.90;;;;;;5012040;28;20540;-64
2022/06/30 06:33:55;;;;;;;5.90;5.32;;;20.90;99.90;;;;;;5014752;28;20239;-64
2022/06/30 06:36:22;;;;;;;8.85;6.20;;;20.90;99.90;;;;;;5005090;28;20626;-64
2022/06/30 06:38:49;;;;;;;6.95;5.63;;;20.90;99.90;;;;;;5004741;28;20207;-64
2022/06/30 06:41:16;;;;;;;7.05;5.47;;;21.10;99.90;;;;;;5013271;28;20235;-64
2022/06/30 06:43:44;;;;;;;6.68;5.90;;;21.40;99.90;;;;;;5025284;28;20254;-64
2022/06/30 06:46:12;;;;;;;8.23;6.07;;;21.30;99.90;;;;;;5005768;28;20304;-64
2022/06/30 06:48:39;;;;;;;7.78;5.85;;;21.50;99.90;;;;;;5006298;28;20251;-65
2022/06/30 06:51:06;;;;;;;8.98;6.35;;;21.20;99.90;;;;;;5009104;28;20603;-64
2022/06/30 06:53:33;;;;;;;10.13;6.63;;;21.40;99.90;;;;;;5027586;28;20196;-64
2022/06/30 06:56:00;;;;;;;7.18;5.80;;;21.50;99.90;;;;;;5012937;28;20215;-64
2022/06/30 06:58:27;;;;;;;7.22;6.10;;;21.80;99.90;;;;;;5002692;28;20231;-64
2022/06/30 07:00:55;;;;;;;8.13;6.20;;;21.90;99.90;;;;;;5005608;28;20694;-65
2022/06/30 07:03:24;;;;;;;6.15;5.55;;;22.00;99.90;;;;;;5010893;28;20204;-64
2022/06/30 07:05:51;;;;;;;7.40;6.18;;;22.00;99.90;;;;;;5017734;28;20643;-64
2022/06/30 07:08:18;;;;;;;8.00;6.35;;;21.90;99.90;;;;;;5015840;28;20287;-64
2022/06/30 07:10:45;;;;;;;7.97;6.88;;;21.80;99.90;;;;;;5023401;28;20207;-64
2022/06/30 07:13:12;;;;;;;6.63;5.90;;;21.80;99.90;;;;;;5021944;28;20259;-64
2022/06/30 07:15:39;;;;;;;7.35;6.20;;;21.80;99.90;;;;;;5013372;28;20619;-64
2022/06/30 07:18:07;;;;;;;7.15;6.47;;;21.90;99.90;;;;;;5014882;28;20290;-64
2022/06/30 07:20:34;;;;;;;7.40;6.53;;;22.10;99.90;;;;;;5012911;28;20235;-64
2022/06/30 07:23:01;;;;;;;8.57;6.50;;;22.10;99.90;;;;;;5012341;28;20204;-68
2022/06/30 07:25:29;;;;;;;7.40;6.57;;;22.00;99.90;;;;;;5008958;28;21583;-65
2022/06/30 07:27:56;;;;;;;8.13;7.03;;;22.10;99.90;;;;;;5008259;28;20225;-65
2022/06/30 07:30:23;;;;;;;7.82;6.85;;;22.40;99.90;;;;;;5015062;28;20243;-65
2022/06/30 07:32:50;;;;;;;8.82;6.97;;;22.50;99.90;;;;;;5014482;28;20357;-65
2022/06/30 07:35:19;;;;;;;11.18;7.60;;;22.50;99.90;;;;;;5012507;28;20605;-65
2022/06/30 07:37:46;;;;;;;10.30;7.70;;;22.60;99.90;;;;;;5014454;28;20264;-65
2022/06/30 07:40:14;;;;;;;10.20;8.27;;;22.60;99.90;;;;;;5010881;28;20200;-65
2022/06/30 07:42:42;;;;;;;8.57;7.32;;;22.60;99.90;;;;;;5015840;28;20215;-65
2022/06/30 07:45:10;;;;;;;11.00;7.57;;;22.80;99.90;;;;;;5026787;28;20204;-65
2022/06/30 07:47:39;;;;;;;8.98;7.97;;;22.80;99.90;;;;;;5018398;28;20305;-65
2022/06/30 07:50:07;;;;;;;9.90;8.00;;;23.00;99.90;;;;;;5023407;28;20219;-65
2022/06/30 07:52:36;;;;;;;10.77;8.52;;;23.00;99.90;;;;;;5029088;28;20199;-65
2022/06/30 07:55:03;;;;;;;10.57;8.02;;;23.00;99.90;;;;;;5032577;28;20200;-65
2022/06/30 07:57:30;;;;;;;9.85;7.63;;;23.00;99.90;;;;;;5027924;28;20263;-65
2022/06/30 07:59:57;;;;;;;11.68;8.95;;;23.10;99.90;;;;;;5009874;28;20205;-68
2022/06/30 08:02:24;;;;;;;12.13;8.88;;;23.20;99.90;;;;;;5013102;28;20671;-69
2022/06/30 08:04:51;;;;;;;10.80;8.80;;;23.20;99.90;;;;;;5016731;28;20266;-69
2022/06/30 08:07:18;;;;;;;11.35;9.13;;;23.20;99.90;;;;;;5020968;28;20411;-69
2022/06/30 08:09:47;;;;;;;11.90;9.57;;;23.20;99.90;;;;;;5005397;28;20258;-68
2022/06/30 08:12:14;;;;;;;10.60;8.85;;;23.30;99.90;;;;;;5004189;28;20481;-69
2022/06/30 08:14:41;;;;;;;12.40;9.13;;;23.40;99.90;;;;;;5003955;28;20748;-69
2022/06/30 08:17:08;;;;;;;9.98;8.80;;;23.40;99.90;;;;;;5024245;28;20267;-65
2022/06/30 08:19:35;;;;;;;13.57;9.23;;;23.40;99.90;;;;;;5013525;28;20205;-65
2022/06/30 08:22:02;;;;;;;11.75;9.13;;;23.60;99.90;;;;;;5012432;28;20257;-65
2022/06/30 08:24:29;;;;;;;13.10;9.48;;;23.70;99.90;;;;;;5012334;28;20247;-65
2022/06/30 08:27:02;;;;;;;13.57;9.48;;;23.60;99.90;;;;;;5012630;28;20282;-65
2022/06/30 08:29:32;;;;;;;13.45;8.95;;;23.60;99.90;;;;;;5012590;28;20286;-65
2022/06/30 08:31:59;;;;;;;11.82;9.43;;;23.70;99.90;;;;;;5011786;28;20295;-65
2022/06/30 08:34:27;;;;;;;11.50;9.00;;;23.80;99.90;;;;;;5012245;28;20196;-65
2022/06/30 08:36:53;;;;;;;11.93;8.73;;;23.70;99.90;;;;;;5018780;28;20543;-65
2022/06/30 08:42:09;;;;;;;10.75;9.38;;;23.80;99.90;;;;;;5012643;28;20298;-65
2022/06/30 08:44:37;;;;;;;12.30;9.38;;;23.70;99.90;;;;;;5012115;28;20666;-65
2022/06/30 08:47:07;;;;;;;14.65;11.32;;;24.20;99.90;;;;;;5014573;28;20293;-65
2022/06/30 08:49:35;;;;;;;13.55;10.43;;;24.20;99.90;;;;;;5011609;28;20774;-65
2022/06/30 08:52:02;;;;;;;13.57;10.73;;;24.30;99.90;;;;;;5012081;28;20270;-65
2022/06/30 08:54:30;;;;;;;12.20;10.25;;;24.60;99.90;;;;;;5015427;28;20227;-65
2022/06/30 08:57:01;;;;;;;13.98;10.38;;;24.80;99.90;;;;;;5029804;28;20259;-65
2022/06/30 08:59:30;;;;;;;11.35;9.73;;;25.30;99.90;;;;;;5024600;28;20197;-65
2022/06/30 09:01:57;;;;;;;15.02;11.02;;;25.80;96.90;;;;;;5012532;28;20259;-65
2022/06/30 09:04:24;;;;;;;16.17;11.20;;;25.90;97.10;;;;;;5021228;28;20258;-65
2022/06/30 09:06:51;;;;;;;11.18;9.52;;;25.80;99.90;;;;;;5014228;28;20634;-65
2022/06/30 09:09:18;;;;;;;10.52;9.07;;;25.60;98.60;;;;;;5011478;28;20796;-65
2022/06/30 09:11:48;;;;;;;13.05;9.48;;;25.60;99.90;;;;;;5014621;28;20207;-65
2022/06/30 09:14:39;;;;;;;11.95;9.80;;;25.70;96.20;;;;;;5012298;28;20242;-65
2022/06/30 09:17:08;;;;;;;11.80;9.40;;;25.80;94.80;;;;;;5011389;28;20204;-65
2022/06/30 09:19:40;;;;;;;11.40;9.45;;;26.00;99.90;;;;;;5026111;28;20250;-65
2022/06/30 09:22:10;;;;;;;10.32;8.85;;;26.20;97.40;;;;;;5015485;28;20287;-65
2022/06/30 09:24:37;;;;;;;12.90;9.48;;;27.30;91.80;;;;;;5011842;28;20208;-65
2022/06/30 09:27:19;;;;;;;11.38;9.43;;;26.40;88.70;;;;;;5011327;28;20208;-65
2022/06/30 09:29:49;;;;;;;11.77;9.60;;;26.50;91.70;;;;;;5011607;28;20204;-65
2022/06/30 09:32:17;;;;;;;10.80;9.13;;;26.70;89.50;;;;;;5009000;28;20671;-66
2022/06/30 09:34:45;;;;;;;11.95;9.18;;;27.40;82.00;;;;;;5029053;28;20643;-67
2022/06/30 09:37:21;;;;;;;13.52;9.40;;;27.70;82.80;;;;;;5027691;28;20204;-67
2022/06/30 09:39:49;;;;;;;10.63;9.50;;;28.20;78.00;;;;;;5011064;28;20211;-67
2022/06/30 09:42:35;;;;;;;10.73;9.13;;;28.50;72.00;;;;;;5023535;28;20298;-67
2022/06/30 09:45:04;;;;;;;11.77;9.82;;;28.50;74.50;;;;;;5011077;28;20219;-67
2022/06/30 09:47:31;;;;;;;11.43;9.90;;;28.10;72.20;;;;;;5012079;28;20573;-67
2022/06/30 09:50:03;;;;;;;10.75;9.52;;;28.00;70.70;;;;;;5011016;28;20235;-67
2022/06/30 09:52:30;;;;;;;9.88;8.85;;;28.60;65.80;;;;;;5027910;28;20204;-67
2022/06/30 09:54:59;;;;;;;11.15;9.70;;;27.90;66.10;;;;;;5029345;28;20301;-67
2022/06/30 09:57:27;;;;;;;12.20;10.10;;;28.10;63.60;;;;;;5011309;28;20244;-67
2022/06/30 10:00:05;;;;;;;12.63;9.73;;;28.50;61.70;;;;;;5010206;28;20776;-67
2022/06/30 10:02:33;;;;;;;11.90;9.15;;;29.70;56.50;;;;;;5020799;28;20218;-68
2022/06/30 10:05:01;;;;;;;9.90;8.88;;;29.40;56.30;;;;;;5016449;28;20227;-68
2022/06/30 10:07:28;;;;;;;9.88;8.88;;;29.10;55.70;;;;;;5011089;28;20591;-68
2022/06/30 10:09:55;;;;;;;10.48;9.40;;;29.10;55.80;;;;;;5015165;28;20274;-68
2022/06/30 10:12:24;;;;;;;12.82;9.90;;;28.50;67.00;;;;;;5010823;28;20196;-67
2022/06/30 10:14:53;;;;;;;10.73;9.15;;;28.30;61.30;;;;;;5009326;28;20204;-68
2022/06/30 10:17:24;;;;;;;10.85;9.40;;;28.50;60.00;;;;;;5009977;28;20637;-67
2022/06/30 10:19:52;;;;;;;10.35;9.23;;;28.40;63.30;;;;;;5008634;28;20513;-67
2022/06/30 10:22:22;;;;;;;12.82;9.65;;;29.40;56.20;;;;;;5011685;28;20185;-68
2022/06/30 10:24:50;;;;;;;10.25;8.70;;;29.70;54.10;;;;;;5013688;28;20212;-68
2022/06/30 10:27:18;;;;;;;10.30;9.20;;;29.00;57.10;;;;;;5022075;28;20283;-67
2022/06/30 10:29:50;;;;;;;10.45;9.07;;;28.90;62.50;;;;;;5013092;28;20204;-67
2022/06/30 10:32:47;;;;;;;11.45;9.82;;;28.40;65.00;;;;;;5022167;28;20236;-68
2022/06/30 10:35:28;;;;;;;10.35;9.05;;;28.60;64.70;;;;;;4993517;28;20271;-68
2022/06/30 10:38:00;;;;;;;10.05;9.07;;;29.50;62.90;;;;;;5013507;28;20228;-68
2022/06/30 10:40:41;;;;;;;10.35;8.70;;;29.40;56.30;;;;;;5012383;28;20243;-68
2022/06/30 10:43:08;;;;;;;10.98;9.68;;;29.20;59.70;;;;;;5014328;28;20196;-68
2022/06/30 10:45:45;;;;;;;10.23;8.75;;;29.40;57.00;;;;;;5013463;28;20562;-68
2022/06/30 10:48:13;;;;;;;12.77;9.32;;;28.80;59.20;;;;;;5009499;28;20208;-67
2022/06/30 10:50:42;;;;;;;11.55;9.77;;;28.70;57.80;;;;;;5011457;28;20293;-67
2022/06/30 10:53:11;;;;;;;10.80;9.68;;;28.70;58.70;;;;;;5016703;28;20242;-67
2022/06/30 10:55:45;;;;;;;11.55;9.15;;;28.80;55.10;;;;;;5013633;28;20243;-67
2022/06/30 10:58:13;;;;;;;14.15;9.63;;;28.90;59.30;;;;;;5014104;28;20245;-67
2022/06/30 11:00:51;;;;;;;11.40;9.15;;;29.50;51.80;;;;;;5012737;28;20643;-68
2022/06/30 11:03:57;;;;;;;9.73;8.55;;;30.50;51.30;;;;;;5012000;28;20284;-68
2022/06/30 11:07:06;;;;;;;9.93;8.40;;;30.60;43.80;;;;;;5010911;28;20205;-68
2022/06/30 11:10:16;;;;;;;11.30;9.10;;;31.20;40.20;;;;;;5009807;28;20278;-68
2022/06/30 11:13:00;;;;;;;9.45;8.52;;;29.90;42.70;;;;;;5009461;28;20285;-68
2022/06/30 11:15:50;;;;;;;10.90;8.52;;;29.60;46.80;;;;;;5019524;28;20549;-68
2022/06/30 11:18:18;;;;;;;9.68;8.68;;;29.80;47.00;;;;;;5018716;28;20227;-67
2022/06/30 11:20:45;;;;;;;9.55;8.48;;;29.60;46.00;;;;;;5013224;28;20230;-67
2022/06/30 11:23:14;;;;;;;11.38;9.20;;;29.70;45.80;;;;;;5026815;28;20610;-67
2022/06/30 11:28:31;;;;;;;10.65;9.13;;;30.10;49.40;;;;;;5012579;28;20207;-68
2022/06/30 11:30:58;;;;;;;10.27;8.38;;;30.20;43.80;;;;;;5011230;28;20252;-67
2022/06/30 11:33:25;;;;;;;9.95;8.48;;;30.00;41.00;;;;;;5012547;28;20295;-68
2022/06/30 11:36:10;;;;;;;11.38;8.18;;;29.70;44.40;;;;;;5013572;28;20353;-67
2022/06/30 11:38:39;;;;;;;9.13;7.68;;;29.80;42.90;;;;;;5013143;28;20227;-67
2022/06/30 11:43:53;;;;;;;8.48;7.57;;;30.50;43.60;;;;;;5011403;28;20191;-67
2022/06/30 11:46:20;;;;;;;11.70;8.20;;;29.80;44.20;;;;;;5012288;28;20216;-68
2022/06/30 11:48:48;;;;;;;11.35;8.50;;;30.40;42.70;;;;;;5012648;28;20531;-67
2022/06/30 11:51:16;;;;;;;8.77;7.82;;;30.40;41.60;;;;;;5011995;28;20263;-68
2022/06/30 11:53:46;;;;;;;9.43;8.32;;;29.90;39.80;;;;;;5012322;28;20231;-67
2022/06/30 11:56:13;;;;;;;8.90;7.55;;;30.60;38.00;;;;;;5011026;28;20236;-68
2022/06/30 11:58:40;;;;;;;9.50;7.72;;;31.20;35.70;;;;;;5012631;28;20294;-68
2022/06/30 12:01:17;;;;;;;11.00;8.00;;;31.90;32.50;;;;;;5011651;28;20197;-67
2022/06/30 12:03:44;;;;;;;9.25;7.30;;;31.70;31.40;;;;;;4996027;28;20271;-68
2022/06/30 12:06:12;;;;;;;8.93;7.63;;;30.90;35.00;;;;;;5032058;28;20246;-67
2022/06/30 12:08:40;;;;;;;8.90;7.93;;;30.70;37.70;;;;;;5031148;28;20627;-68
2022/06/30 12:11:09;;;;;;;11.27;8.13;;;31.30;38.10;;;;;;5025214;28;20212;-68
2022/06/30 12:13:36;;;;;;;9.68;7.47;;;32.00;30.90;;;;;;5012664;28;20671;-67
2022/06/30 12:16:05;;;;;;;9.27;8.27;;;31.20;35.60;;;;;;5011661;28;20662;-67
2022/06/30 12:18:32;;;;;;;9.95;7.97;;;30.30;39.30;;;;;;5012422;28;20537;-68
2022/06/30 12:20:59;;;;;;;10.13;8.13;;;30.50;38.30;;;;;;5016432;28;20231;-67
2022/06/30 12:23:27;;;;;;;8.43;7.57;;;30.10;42.90;;;;;;5031963;28;20203;-67
2022/06/30 12:25:55;;;;;;;8.55;7.72;;;29.90;47.60;;;;;;5013127;28;20200;-67
2022/06/30 12:28:25;;;;;;;9.75;8.75;;;30.30;43.50;;;;;;5010360;28;20224;-67
2022/06/30 12:30:53;;;;;;;10.77;8.50;;;30.00;43.70;;;;;;5009414;28;20207;-67
2022/06/30 12:33:22;;;;;;;8.70;7.78;;;29.90;47.00;;;;;;5011827;28;20243;-67
2022/06/30 12:35:49;;;;;;;9.15;8.18;;;29.70;47.20;;;;;;5026577;28;20203;-67
2022/06/30 12:38:20;;;;;;;10.93;8.90;;;30.10;44.90;;;;;;5030078;28;20290;-67
2022/06/30 12:40:49;;;;;;;9.98;7.78;;;30.00;42.90;;;;;;5026109;28;20227;-67
2022/06/30 12:43:17;;;;;;;11.35;8.65;;;30.60;44.40;;;;;;5012281;28;20208;-73
2022/06/30 12:45:49;;;;;;;11.00;7.85;;;30.10;38.20;;;;;;5009892;28;20215;-73
2022/06/30 12:48:40;;;;;;;10.95;8.32;;;30.10;40.30;;;;;;5026784;28;20218;-75
2022/06/30 12:51:08;;;;;;;10.55;8.10;;;29.90;42.70;;;;;;5027332;28;20262;-74
2022/06/30 12:53:36;;;;;;;10.13;7.88;;;29.70;45.40;;;;;;5010148;28;20540;-73
2022/06/30 12:56:11;;;;;;;8.57;7.50;;;29.90;40.30;;;;;;5010672;28;20200;-74
2022/06/30 12:58:51;;;;;;;10.23;7.65;;;30.10;40.70;;;;;;5011585;28;20219;-73
2022/06/30 13:01:22;;;;;;;9.35;7.95;;;30.40;38.20;;;;;;5010574;28;20215;-74
2022/06/30 13:03:58;;;;;;;9.25;7.78;;;30.80;36.80;;;;;;5010867;28;20254;-73
2022/06/30 13:06:27;;;;;;;10.65;8.13;;;30.10;40.90;;;;;;4992813;28;20205;-74
2022/06/30 13:08:54;;;;;;;9.80;8.05;;;30.10;41.90;;;;;;4992160;28;20205;-73
2022/06/30 13:11:24;;;;;;;10.07;8.07;;;30.40;40.50;;;;;;4999766;28;20316;-73
2022/06/30 13:13:52;;;;;;;10.43;7.35;;;30.30;39.70;;;;;;5011802;28;20200;-74